createdAt,value
2019-05-13T00:02:17.453Z,14.30
2019-05-13T00:04:48.932Z,14.34
2019-05-13T00:07:20.298Z,14.37
2019-05-13T00:09:51.684Z,14.38
2019-05-13T00:12:23.981Z,14.38
2019-05-13T00:14:55.661Z,14.35
2019-05-13T00:17:27.021Z,14.33
2019-05-13T00:19:58.606Z,14.30
2019-05-13T00:22:29.891Z,14.25
2019-05-13T00:25:03.838Z,14.22
2019-05-13T00:27:34.254Z,14.22
2019-05-13T00:30:07.049Z,14.20
2019-05-13T00:32:38.343Z,14.20
2019-05-13T00:35:09.723Z,14.20
2019-05-13T00:37:44.037Z,14.20
2019-05-13T00:40:15.285Z,14.20
2019-05-13T00:42:46.586Z,14.20
2019-05-13T00:45:17.942Z,14.20
2019-05-13T00:47:49.232Z,14.22
2019-05-13T00:50:20.844Z,14.22
2019-05-13T00:52:53.647Z,14.25
2019-05-13T00:55:25.200Z,14.24
2019-05-13T00:57:56.483Z,14.27
2019-05-13T01:00:27.874Z,14.28
2019-05-13T01:02:59.156Z,14.33
2019-05-13T01:05:30.538Z,14.35
2019-05-13T01:08:04.095Z,14.40
2019-05-13T01:10:34.911Z,14.43
2019-05-13T01:13:06.191Z,14.43
2019-05-13T01:15:37.628Z,14.41
2019-05-13T01:18:10.199Z,14.38
2019-05-13T01:20:43.704Z,14.40
2019-05-13T01:23:15.791Z,14.45
2019-05-13T01:25:47.213Z,14.50
2019-05-13T01:28:18.539Z,14.49
2019-05-13T01:33:54.365Z,14.56
2019-05-13T01:36:25.717Z,14.61
2019-05-13T01:38:57.107Z,14.64
2019-05-13T01:41:30.443Z,14.68
2019-05-13T01:44:04.130Z,14.67
2019-05-13T01:46:36.606Z,14.68
2019-05-13T01:49:07.974Z,14.64
2019-05-13T01:51:40.293Z,14.67
2019-05-13T01:54:14.349Z,14.68
2019-05-13T01:56:46.868Z,14.72
2019-05-13T01:59:18.315Z,14.72
2019-05-13T02:01:50.704Z,14.73
2019-05-13T02:04:24.412Z,14.71
2019-05-13T02:06:55.344Z,14.68
2019-05-13T02:09:26.893Z,14.65
2019-05-13T02:11:58.180Z,14.69
2019-05-13T02:14:29.699Z,14.68
2019-05-13T02:17:00.998Z,14.70
2019-05-13T02:19:34.946Z,14.72
2019-05-13T02:22:06.357Z,14.74
2019-05-13T02:24:37.892Z,14.74
2019-05-13T02:27:09.219Z,14.70
2019-05-13T02:29:40.638Z,14.63
2019-05-13T02:32:13.713Z,14.66
2019-05-13T02:34:45.053Z,14.62
2019-05-13T02:37:16.339Z,14.61
2019-05-13T02:39:47.722Z,14.61
2019-05-13T02:42:22.583Z,14.62
2019-05-13T02:44:52.909Z,14.63
2019-05-13T02:47:24.571Z,14.59
2019-05-13T02:50:00.370Z,14.61
2019-05-13T02:52:28.975Z,14.62
2019-05-13T02:55:03.832Z,14.63
2019-05-13T02:57:33.530Z,14.63
2019-05-13T03:00:08.732Z,14.66
2019-05-13T03:02:43.290Z,14.70
2019-05-13T03:05:13.925Z,14.78
2019-05-13T03:07:45.441Z,14.94
2019-05-13T03:10:16.925Z,15.07
2019-05-13T03:12:48.209Z,15.19
2019-05-13T03:15:22.922Z,15.34
2019-05-13T03:17:54.199Z,15.49
2019-05-13T03:20:25.830Z,15.64
2019-05-13T03:22:57.265Z,15.80
2019-05-13T03:25:28.949Z,15.83
2019-05-13T03:28:03.110Z,15.86
2019-05-13T03:30:35.192Z,15.89
2019-05-13T03:33:10.850Z,15.94
2019-05-13T03:35:44.777Z,15.95
2019-05-13T03:38:13.033Z,15.93
2019-05-13T03:40:44.489Z,15.96
2019-05-13T03:43:16.712Z,16.02
2019-05-13T03:45:48.173Z,16.05
2019-05-13T03:48:23.623Z,16.05
2019-05-13T03:50:54.430Z,16.14
2019-05-13T03:53:25.837Z,16.25
2019-05-13T03:55:57.247Z,16.36
2019-05-13T03:58:32.152Z,16.40
2019-05-13T04:01:02.840Z,16.52
2019-05-13T04:03:34.438Z,16.57
2019-05-13T04:06:05.846Z,16.59
2019-05-13T04:08:37.263Z,16.55
2019-05-13T04:11:12.311Z,16.65
2019-05-13T04:13:43.094Z,16.73
2019-05-13T04:16:14.896Z,16.73
2019-05-13T04:18:46.770Z,16.82
2019-05-13T04:21:18.644Z,16.91
2019-05-13T04:23:53.111Z,16.99
2019-05-13T04:26:24.206Z,17.16
2019-05-13T04:28:55.693Z,17.42
2019-05-13T04:31:27.369Z,17.63
2019-05-13T04:34:02.029Z,17.86
2019-05-13T04:36:32.211Z,17.98
2019-05-13T04:39:05.353Z,18.23
2019-05-13T04:41:36.814Z,18.33
2019-05-13T04:44:08.221Z,18.72
2019-05-13T04:46:43.202Z,18.95
2019-05-13T04:49:13.241Z,19.08
2019-05-13T04:51:44.780Z,19.08
2019-05-13T04:54:16.332Z,19.28
2019-05-13T04:56:47.844Z,19.39
2019-05-13T04:59:22.434Z,19.53
2019-05-13T05:02:18.118Z,19.53
2019-05-13T05:04:53.593Z,19.67
2019-05-13T05:07:42.092Z,19.70
2019-05-13T05:10:38.705Z,19.68
2019-05-13T05:13:27.706Z,19.64
2019-05-13T05:16:13.792Z,19.70
2019-05-13T05:19:04.720Z,19.75
2019-05-13T05:21:55.445Z,19.77
2019-05-13T05:24:36.446Z,19.77
2019-05-13T05:27:35.279Z,19.73
2019-05-13T05:30:26.090Z,19.72
2019-05-13T05:33:21.588Z,19.78
2019-05-13T05:36:16.801Z,19.82
2019-05-13T05:39:12.349Z,19.85
2019-05-13T05:41:43.697Z,19.76
2019-05-13T05:44:15.120Z,19.78
2019-05-13T05:46:46.661Z,19.72
2019-05-13T05:49:18.051Z,19.64
2019-05-13T05:51:51.484Z,19.77
2019-05-13T05:54:22.760Z,19.91
2019-05-13T05:56:54.707Z,20.11
2019-05-13T05:59:26.065Z,20.38
2019-05-13T06:01:57.582Z,20.75
2019-05-13T06:04:32.445Z,21.15
2019-05-13T06:07:04.857Z,21.92
2019-05-13T06:09:36.368Z,22.28
2019-05-13T06:12:07.896Z,22.75
2019-05-13T06:14:39.308Z,22.78
2019-05-13T06:17:11.758Z,23.08
2019-05-13T06:19:43.207Z,23.14
2019-05-13T06:22:14.715Z,23.59
2019-05-13T06:24:46.315Z,23.81
2019-05-13T06:27:17.839Z,24.14
2019-05-13T06:29:52.531Z,24.53
2019-05-13T06:32:26.225Z,24.37
2019-05-13T06:34:55.524Z,25.57
2019-05-13T06:37:27.041Z,25.50
2019-05-13T06:39:58.615Z,26.84
2019-05-13T06:42:32.471Z,28.23
2019-05-13T06:45:03.447Z,29.43
2019-05-13T06:47:36.344Z,30.52
2019-05-13T06:50:07.909Z,32.27
2019-05-13T06:52:39.489Z,34.54
2019-05-13T06:55:35.052Z,36.32
2019-05-13T06:58:06.760Z,36.32
2019-05-13T07:00:38.200Z,35.03
2019-05-13T07:03:11.968Z,32.64
2019-05-13T07:05:45.451Z,31.64
2019-05-13T07:08:16.851Z,33.20
2019-05-13T07:10:48.363Z,33.91
2019-05-13T07:13:21.793Z,34.70
2019-05-13T07:15:53.354Z,34.39
2019-05-13T07:18:24.871Z,33.44
2019-05-13T07:20:56.294Z,32.36
2019-05-13T07:23:27.743Z,30.32
2019-05-13T07:26:01.793Z,29.53
2019-05-13T07:28:33.648Z,29.17
2019-05-13T07:31:05.073Z,30.08
2019-05-13T07:33:36.682Z,31.19
2019-05-13T07:36:08.232Z,32.23
2019-05-13T07:38:41.543Z,32.20
2019-05-13T07:41:13.057Z,33.29
2019-05-13T07:43:44.714Z,31.91
2019-05-13T07:46:16.144Z,32.05
2019-05-13T07:48:47.646Z,32.72
2019-05-13T07:51:19.008Z,32.47
2019-05-13T07:53:51.819Z,33.15
2019-05-13T07:56:22.792Z,34.74
2019-05-13T07:58:54.022Z,35.87
2019-05-13T08:01:25.471Z,37.96
2019-05-13T08:03:57.028Z,37.72
2019-05-13T08:06:28.480Z,37.31
2019-05-13T08:09:01.657Z,36.89
2019-05-13T08:11:36.889Z,37.14
2019-05-13T08:14:07.402Z,38.18
2019-05-13T08:16:38.852Z,37.38
2019-05-13T08:19:12.283Z,36.59
2019-05-13T08:21:43.548Z,34.20
2019-05-13T08:24:15.262Z,33.34
2019-05-13T08:26:49.883Z,33.44
2019-05-13T08:29:21.499Z,35.12
2019-05-13T08:31:52.082Z,37.09
2019-05-13T08:34:23.661Z,38.29
2019-05-13T08:36:55.846Z,38.75
2019-05-13T08:39:33.465Z,38.47
2019-05-13T08:42:15.638Z,36.45
2019-05-13T08:44:35.101Z,35.51
2019-05-13T08:47:06.122Z,35.77
2019-05-13T08:49:37.815Z,36.24
2019-05-13T08:52:11.855Z,38.63
2019-05-13T08:54:42.355Z,38.10
2019-05-13T08:57:13.763Z,35.51
2019-05-13T08:59:45.509Z,34.52
2019-05-13T09:02:16.841Z,34.84
2019-05-13T09:04:48.391Z,34.92
2019-05-13T09:07:23.894Z,33.60
2019-05-13T09:09:53.114Z,33.20
2019-05-13T09:12:31.947Z,33.65
2019-05-13T09:14:59.146Z,35.44
2019-05-13T09:17:31.865Z,35.92
2019-05-13T09:20:04.808Z,35.55
2019-05-13T09:22:36.126Z,34.72
2019-05-13T09:25:08.077Z,33.21
2019-05-13T09:27:42.317Z,32.28
2019-05-13T09:30:13.156Z,31.96
2019-05-13T09:32:44.590Z,31.90
2019-05-13T09:35:15.999Z,30.42
2019-05-13T09:37:47.377Z,29.66
2019-05-13T09:40:18.998Z,30.33
2019-05-13T09:42:54.461Z,31.32
2019-05-13T09:45:23.847Z,32.85
2019-05-13T09:47:55.241Z,33.03
2019-05-13T09:50:32.185Z,32.36
2019-05-13T09:53:02.518Z,31.10
2019-05-13T09:55:33.069Z,30.43
2019-05-13T09:58:05.699Z,29.80
2019-05-13T10:00:36.921Z,29.56
2019-05-13T10:03:13.563Z,29.03
2019-05-13T10:05:43.806Z,28.05
2019-05-13T10:08:15.105Z,26.91
2019-05-13T10:10:46.718Z,26.62
2019-05-13T10:13:18.050Z,26.28
2019-05-13T10:15:49.706Z,25.98
2019-05-13T10:18:21.884Z,25.77
2019-05-13T10:21:02.096Z,25.70
2019-05-13T10:23:33.628Z,25.58
2019-05-13T10:26:07.686Z,25.38
2019-05-13T10:28:39.220Z,25.17
2019-05-13T10:31:12.006Z,25.03
2019-05-13T10:33:43.508Z,24.96
2019-05-13T10:36:15.143Z,24.53
2019-05-13T10:38:48.929Z,24.47
2019-05-13T10:41:22.222Z,24.55
2019-05-13T10:43:53.387Z,24.38
2019-05-13T10:46:25.636Z,24.46
2019-05-13T10:48:57.009Z,24.57
2019-05-13T10:51:28.583Z,24.79
2019-05-13T10:54:00.043Z,25.10
2019-05-13T10:56:32.816Z,25.37
2019-05-13T10:59:04.402Z,25.59
2019-05-13T11:01:37.435Z,25.97
2019-05-13T11:06:41.800Z,25.81
2019-05-13T11:09:13.416Z,25.74
2019-05-13T11:11:44.854Z,25.83
2019-05-13T11:14:16.223Z,25.73
2019-05-13T11:16:47.715Z,25.32
2019-05-13T11:19:19.028Z,25.32
2019-05-13T11:21:52.470Z,25.35
2019-05-13T11:24:23.831Z,25.46
2019-05-13T11:26:55.812Z,25.86
2019-05-13T11:29:27.478Z,26.74
2019-05-13T11:31:59.094Z,26.92
2019-05-13T11:34:32.955Z,26.91
2019-05-13T11:37:03.983Z,27.36
2019-05-13T11:39:35.466Z,27.95
2019-05-13T11:42:07.319Z,28.36
2019-05-13T11:44:38.792Z,28.67
2019-05-13T11:47:12.759Z,28.81
2019-05-13T11:49:43.855Z,28.81
2019-05-13T11:52:15.442Z,29.12
2019-05-13T11:54:46.764Z,28.94
2019-05-13T11:57:18.225Z,28.52
2019-05-13T11:59:52.463Z,28.59
2019-05-13T12:02:23.418Z,28.77
2019-05-13T12:04:55.922Z,28.41
2019-05-13T12:07:27.522Z,28.00
2019-05-13T12:09:59.117Z,27.43
2019-05-13T12:12:34.438Z,26.72
2019-05-13T12:15:27.159Z,25.60
2019-05-13T12:17:43.108Z,24.74
2019-05-13T12:20:16.281Z,24.25
2019-05-13T12:22:48.309Z,23.90
2019-05-13T12:25:22.417Z,23.38
2019-05-13T12:27:53.013Z,23.22
2019-05-13T12:30:24.696Z,22.64
2019-05-13T12:32:56.396Z,21.63
2019-05-13T12:35:28.037Z,20.87
2019-05-13T12:37:59.802Z,20.36
2019-05-13T12:40:33.882Z,20.04
2019-05-13T12:43:07.361Z,19.97
2019-05-13T12:45:43.196Z,19.95
2019-05-13T12:48:16.194Z,19.96
2019-05-13T12:50:47.730Z,20.02
2019-05-13T12:53:22.123Z,20.06
2019-05-13T12:55:57.343Z,20.13
2019-05-13T12:58:33.988Z,20.22
2019-05-13T13:01:03.040Z,20.28
2019-05-13T13:03:34.887Z,20.43
2019-05-13T13:08:44.662Z,20.82
2019-05-13T13:11:17.096Z,20.96
2019-05-13T13:13:59.788Z,21.20
2019-05-13T13:16:23.891Z,21.34
2019-05-13T13:18:56.182Z,21.44
2019-05-13T13:21:36.849Z,21.57
2019-05-13T13:24:04.470Z,21.63
2019-05-13T13:26:35.875Z,21.61
2019-05-13T13:29:07.763Z,21.72
2019-05-13T13:31:43.246Z,21.72
2019-05-13T13:34:17.940Z,21.68
2019-05-13T13:36:46.693Z,21.68
2019-05-13T13:39:18.508Z,21.74
2019-05-13T13:41:53.418Z,21.81
2019-05-13T13:44:24.508Z,21.87
2019-05-13T13:46:56.117Z,21.85
2019-05-13T13:49:27.604Z,21.88
2019-05-13T13:51:59.169Z,21.84
2019-05-13T13:54:33.561Z,21.75
2019-05-13T13:57:03.763Z,21.62
2019-05-13T13:59:36.332Z,21.58
2019-05-13T14:02:07.861Z,21.55
2019-05-13T14:04:39.289Z,21.54
2019-05-13T14:06:26.943Z,26.20
2019-05-13T14:07:28.111Z,21.54
2019-05-13T14:09:43.968Z,21.58
2019-05-13T14:12:16.335Z,21.72
2019-05-13T14:14:47.990Z,21.75
2019-05-13T14:17:21.819Z,21.84
2019-05-13T14:19:52.955Z,21.97
2019-05-13T14:22:24.941Z,22.11
2019-05-13T14:24:56.530Z,22.20
2019-05-13T14:27:27.826Z,22.22
2019-05-13T14:30:01.320Z,22.21
2019-05-13T14:32:33.281Z,22.24
2019-05-13T14:35:08.894Z,22.22
2019-05-13T14:37:41.197Z,22.13
2019-05-13T14:40:14.256Z,21.98
2019-05-13T14:42:47.034Z,21.87
2019-05-13T14:45:23.510Z,21.88
2019-05-13T14:47:54.570Z,21.95
2019-05-13T14:50:26.861Z,21.98
2019-05-13T14:52:58.672Z,21.94
2019-05-13T14:55:32.043Z,21.83
2019-05-13T14:58:03.556Z,21.71
2019-05-13T15:00:35.178Z,21.66
2019-05-13T15:03:06.620Z,21.59
2019-05-13T15:05:38.551Z,21.55
2019-05-13T15:08:10.408Z,21.47
2019-05-13T15:10:42.563Z,21.38
2019-05-13T15:13:18.657Z,21.31
2019-05-13T15:15:51.661Z,21.24
2019-05-13T15:18:23.599Z,21.13
2019-05-13T15:20:55.456Z,21.07
2019-05-13T15:23:27.354Z,20.94
2019-05-13T15:25:59.310Z,20.79
2019-05-13T15:28:31.872Z,20.69
2019-05-13T15:31:03.918Z,20.63
2019-05-13T15:33:37.106Z,20.49
2019-05-13T15:36:11.923Z,20.36
2019-05-13T15:38:46.652Z,20.23
2019-05-13T15:41:20.553Z,20.15
2019-05-13T15:43:53.589Z,20.06
2019-05-13T15:46:25.611Z,20.02
2019-05-13T15:48:57.557Z,19.97
2019-05-13T15:51:31.428Z,19.97
2019-05-13T15:54:03.213Z,19.88
2019-05-13T15:56:35.219Z,19.88
2019-05-13T15:59:08.927Z,19.92
2019-05-13T16:01:41.501Z,19.88
2019-05-13T16:04:13.720Z,19.90
2019-05-13T16:06:45.452Z,19.86
2019-05-13T16:09:16.971Z,19.88
2019-05-13T16:11:48.681Z,19.88
2019-05-13T16:14:21.991Z,19.82
2019-05-13T16:16:54.083Z,19.79
2019-05-13T16:19:25.677Z,19.73
2019-05-13T16:21:57.374Z,19.62
2019-05-13T16:24:28.993Z,19.55
2019-05-13T16:27:02.511Z,19.52
2019-05-13T16:29:35.667Z,19.47
2019-05-13T16:32:07.729Z,19.37
2019-05-13T16:34:41.945Z,19.27
2019-05-13T16:37:12.916Z,19.21
2019-05-13T16:39:44.522Z,19.25
2019-05-13T16:42:16.465Z,19.30
2019-05-13T16:44:48.055Z,19.27
2019-05-13T16:47:21.291Z,19.19
2019-05-13T16:49:53.898Z,19.12
2019-05-13T16:52:25.402Z,18.99
2019-05-13T16:54:56.926Z,18.88
2019-05-13T16:57:28.720Z,18.77
2019-05-13T17:00:02.478Z,18.72
2019-05-13T17:02:35.800Z,18.65
2019-05-13T17:05:08.325Z,18.57
2019-05-13T17:07:42.210Z,18.45
2019-05-13T17:10:13.303Z,18.30
2019-05-13T17:12:44.833Z,18.23
2019-05-13T17:15:16.338Z,18.17
2019-05-13T17:17:47.979Z,18.09
2019-05-13T17:20:21.447Z,18.03
2019-05-13T17:22:53.063Z,17.93
2019-05-13T17:25:24.509Z,17.89
2019-05-13T17:27:56.122Z,17.89
2019-05-13T17:30:46.588Z,17.88
2019-05-13T17:33:18.783Z,17.82
2019-05-13T17:35:50.407Z,17.80
2019-05-13T17:38:21.956Z,17.75
2019-05-13T17:40:54.456Z,17.75
2019-05-13T17:43:26.369Z,17.70
2019-05-13T17:45:57.651Z,17.68
2019-05-13T17:48:30.241Z,17.71
2019-05-13T17:51:02.211Z,17.71
2019-05-13T17:53:34.887Z,17.73
2019-05-13T17:56:06.353Z,17.67
2019-05-13T17:58:37.940Z,17.69
2019-05-13T18:01:09.367Z,17.64
2019-05-13T18:03:41.253Z,17.68
2019-05-13T18:06:12.910Z,17.71
2019-05-13T18:08:44.549Z,17.69
2019-05-13T18:11:16.003Z,17.73
2019-05-13T18:13:47.670Z,17.71
2019-05-13T18:16:21.552Z,17.71
2019-05-13T18:18:52.454Z,17.72
2019-05-13T18:21:23.976Z,17.70
2019-05-13T18:23:55.744Z,17.53
2019-05-13T18:26:28.089Z,17.49
2019-05-13T18:29:01.939Z,17.46
2019-05-13T18:31:32.998Z,17.49
2019-05-13T18:34:04.729Z,17.52
2019-05-13T18:36:36.488Z,17.50
2019-05-13T18:39:09.340Z,17.45
2019-05-13T18:41:41.380Z,17.47
2019-05-13T18:44:13.144Z,17.43
2019-05-13T18:46:44.639Z,17.37
2019-05-13T18:49:16.519Z,17.35
2019-05-13T18:51:47.967Z,17.31
2019-05-13T18:54:19.537Z,17.28
2019-05-13T18:56:52.209Z,17.25
2019-05-13T18:59:24.006Z,17.23
2019-05-13T19:01:55.445Z,17.21
2019-05-13T19:04:26.979Z,17.16
2019-05-13T19:06:58.525Z,17.17
2019-05-13T19:09:31.111Z,17.17
2019-05-13T19:12:02.766Z,17.09
2019-05-13T19:14:34.451Z,17.05
2019-05-13T19:17:05.985Z,17.03
2019-05-13T19:19:37.687Z,16.97
2019-05-13T19:22:09.045Z,16.94
2019-05-13T19:24:41.668Z,16.90
2019-05-13T19:27:13.187Z,16.85
2019-05-13T19:29:44.999Z,16.81
2019-05-13T19:32:16.474Z,16.79
2019-05-13T19:34:48.394Z,16.76
2019-05-13T19:37:22.495Z,16.79
2019-05-13T19:39:53.788Z,16.79
2019-05-13T19:42:25.180Z,16.84
2019-05-13T19:44:56.953Z,16.87
2019-05-13T19:47:28.400Z,16.91
2019-05-13T19:50:02.251Z,16.93
2019-05-13T19:52:34.939Z,16.89
2019-05-13T19:55:07.463Z,16.85
2019-05-13T19:57:38.857Z,16.88
2019-05-13T20:00:13.969Z,16.93
2019-05-13T20:02:43.632Z,16.96
2019-05-13T20:05:15.244Z,16.99
2019-05-13T20:07:46.750Z,16.98
2019-05-13T20:10:18.516Z,17.01
2019-05-13T20:12:51.331Z,16.99
2019-05-13T20:15:23.087Z,16.99
2019-05-13T20:17:54.487Z,16.97
2019-05-13T20:20:26.052Z,17.01
2019-05-13T20:22:57.897Z,17.04
2019-05-13T20:25:31.238Z,17.02
2019-05-13T20:28:02.811Z,16.97
2019-05-13T20:30:34.429Z,17.01
2019-05-13T20:33:06.088Z,17.04
2019-05-13T20:35:37.991Z,17.04
2019-05-13T20:38:11.578Z,17.03
2019-05-13T20:40:42.901Z,17.02
2019-05-13T20:43:14.577Z,16.93
2019-05-13T20:45:46.189Z,16.94
2019-05-13T20:48:18.649Z,16.90
2019-05-13T20:50:51.954Z,16.84
2019-05-13T20:53:23.689Z,16.83
2019-05-13T20:55:55.361Z,16.73
2019-05-13T20:58:27.091Z,16.66
2019-05-13T21:00:58.886Z,16.58
2019-05-13T21:03:31.608Z,16.52
2019-05-13T21:06:04.641Z,16.45
2019-05-13T21:08:36.104Z,16.41
2019-05-13T21:11:07.674Z,16.33
2019-05-13T21:13:41.080Z,16.29
2019-05-13T21:16:12.283Z,16.30
2019-05-13T21:18:43.828Z,16.22
2019-05-13T21:21:15.355Z,16.19
2019-05-13T21:23:48.048Z,16.11
2019-05-13T21:26:19.489Z,16.07
2019-05-13T21:28:52.199Z,16.00
2019-05-13T21:31:23.954Z,15.96
2019-05-13T21:33:55.471Z,15.93
2019-05-13T21:36:28.139Z,15.94
2019-05-13T21:39:01.636Z,15.88
2019-05-13T21:41:34.879Z,15.82
2019-05-13T21:44:06.272Z,15.74
2019-05-13T21:46:37.805Z,15.67
2019-05-13T21:49:11.637Z,15.61
2019-05-13T21:51:42.303Z,15.58
2019-05-13T21:54:13.741Z,15.54
2019-05-13T21:56:46.863Z,15.54
2019-05-13T21:59:18.424Z,15.49
2019-05-13T22:01:52.099Z,15.47
2019-05-13T22:04:23.023Z,15.44
2019-05-13T22:06:54.526Z,15.39
2019-05-13T22:09:25.831Z,15.37
2019-05-13T22:11:57.289Z,15.36
2019-05-13T22:14:28.765Z,15.36
2019-05-13T22:17:01.534Z,15.35
2019-05-13T22:19:33.195Z,15.36
2019-05-13T22:22:08.014Z,15.35
2019-05-13T22:24:41.638Z,15.34
2019-05-13T22:27:13.266Z,15.34
2019-05-13T22:29:45.003Z,15.36
2019-05-13T22:32:16.600Z,15.35
2019-05-13T22:34:48.135Z,15.36
2019-05-13T22:37:20.146Z,15.35
2019-05-13T22:39:51.546Z,15.31
2019-05-13T22:42:22.991Z,15.29
2019-05-13T22:44:54.391Z,15.27
2019-05-13T22:47:27.439Z,15.22
2019-05-13T22:49:58.965Z,15.24
2019-05-13T22:52:31.279Z,15.20
2019-05-13T22:55:02.881Z,15.18
2019-05-13T22:57:34.780Z,15.15
2019-05-13T23:00:06.929Z,15.16
2019-05-13T23:02:42.194Z,15.15
2019-05-13T23:05:13.184Z,15.08
2019-05-13T23:07:44.710Z,15.06
2019-05-13T23:10:16.191Z,15.04
2019-05-13T23:12:47.894Z,15.02
2019-05-13T23:15:21.172Z,14.99
2019-05-13T23:17:52.390Z,14.96
2019-05-13T23:20:23.690Z,14.95
2019-05-13T23:22:55.057Z,14.90
2019-05-13T23:25:26.389Z,14.85
2019-05-13T23:27:57.862Z,14.83
2019-05-13T23:30:31.249Z,14.79
2019-05-13T23:33:02.576Z,14.79
2019-05-13T23:35:34.069Z,14.82
2019-05-13T23:38:06.126Z,14.82
2019-05-13T23:40:38.316Z,14.80
2019-05-13T23:43:11.322Z,14.77
2019-05-13T23:45:42.856Z,14.73
2019-05-13T23:48:14.263Z,14.69
2019-05-13T23:50:45.654Z,14.67
2019-05-13T23:53:17.067Z,14.66
2019-05-13T23:55:48.365Z,14.65
2019-05-13T23:58:21.646Z,14.62
